Terminal Aerodrome Forecast
Issued by NWS Huntsville, AL

Home | Current Version | Previous Version | Text Only | Print | Product List | Glossary On
Versions: 1 2 3 4 5 6 7 8 9 10 11 12 13 14 15 16 17 18 19 20 21
000
FTUS44 KHUN 161120
TAFMSL
TAF
KMSL 161120Z 1612/1712 00000KT 6SM BR BKN070
     FM161500 13005KT P6SM SCT070 BKN150
     FM161800 18010G15KT P6SM SCT050 BKN100
     FM170500 18011KT P6SM VCSH BKN030=

USA.gov is the U.S. government's official web portal to all federal, state and local government web resources and services.